createdAt,value
2018-10-06T00:02:04.271Z,97236.91
2018-10-06T00:04:31.704Z,97222.41
2018-10-06T00:06:59.136Z,97224.28
2018-10-06T00:09:26.568Z,97226.68
2018-10-06T00:11:53.960Z,97220.14
2018-10-06T00:14:21.515Z,97231.88
2018-10-06T00:16:48.926Z,97224.09
2018-10-06T00:19:16.396Z,97229.13
2018-10-06T00:21:43.833Z,97223.43
2018-10-06T00:24:11.254Z,97229.56
2018-10-06T00:26:38.822Z,97228.94
2018-10-06T00:29:06.236Z,97221.98
2018-10-06T00:31:33.765Z,97228.12
2018-10-06T00:34:01.190Z,97222.59
2018-10-06T00:36:28.586Z,97231.16
2018-10-06T00:38:56.028Z,97231.01
2018-10-06T00:41:23.517Z,97228.12
2018-10-06T00:43:50.988Z,97224.47
2018-10-06T00:46:18.444Z,97221.83
2018-10-06T00:48:45.990Z,97220.49
2018-10-06T00:51:13.470Z,97222.91
2018-10-06T00:53:40.944Z,97218.27
2018-10-06T00:56:08.381Z,97221.50
2018-10-06T00:58:35.783Z,97215.62
2018-10-06T01:01:03.227Z,97214.69
2018-10-06T01:03:30.642Z,97219.42
2018-10-06T01:05:58.184Z,97219.77
2018-10-06T01:08:25.660Z,97225.84
2018-10-06T01:10:53.097Z,97222.73
2018-10-06T01:13:20.513Z,97215.99
2018-10-06T01:15:47.976Z,97218.76
2018-10-06T01:18:15.412Z,97223.20
2018-10-06T01:20:42.876Z,97219.01
2018-10-06T01:23:10.325Z,97225.62
2018-10-06T01:25:37.761Z,97218.06
2018-10-06T01:28:05.197Z,97209.30
2018-10-06T01:30:32.670Z,97207.81
2018-10-06T01:33:00.153Z,97207.73
2018-10-06T01:35:27.574Z,97208.73
2018-10-06T01:37:55.439Z,97203.22
2018-10-06T01:40:22.910Z,97200.72
2018-10-06T01:42:50.411Z,97205.20
2018-10-06T01:45:17.813Z,97204.67
2018-10-06T01:47:45.225Z,97202.34
2018-10-06T01:50:12.618Z,97200.48
2018-10-06T01:52:40.104Z,97198.54
2018-10-06T01:55:07.526Z,97198.84
2018-10-06T01:57:34.988Z,97193.82
2018-10-06T02:00:02.422Z,97190.36
2018-10-06T02:02:29.875Z,97186.27
2018-10-06T02:04:57.509Z,97188.06
2018-10-06T02:07:24.997Z,97186.75
2018-10-06T02:09:52.573Z,97188.31
2018-10-06T02:12:20.682Z,97180.30
2018-10-06T02:14:48.107Z,97178.73
2018-10-06T02:17:15.574Z,97186.05
2018-10-06T02:19:43.027Z,97178.14
2018-10-06T02:22:10.469Z,97178.77
2018-10-06T02:24:37.922Z,97180.75
2018-10-06T02:27:05.351Z,97183.94
2018-10-06T02:29:32.776Z,97174.05
2018-10-06T02:32:00.185Z,97183.56
2018-10-06T02:34:27.592Z,97174.78
2018-10-06T02:36:55.015Z,97175.09
2018-10-06T02:39:22.779Z,97169.82
2018-10-06T02:41:50.251Z,97172.14
2018-10-06T02:44:17.686Z,97165.84
2018-10-06T02:46:45.115Z,97159.98
2018-10-06T02:49:12.507Z,97167.72
2018-10-06T02:51:40.339Z,97163.52
2018-10-06T02:54:07.740Z,97156.97
2018-10-06T02:56:35.150Z,97156.34
2018-10-06T02:59:02.596Z,97157.63
2018-10-06T03:01:30.052Z,97149.92
2018-10-06T03:03:57.589Z,97152.80
2018-10-06T03:06:25.031Z,97148.84
2018-10-06T03:08:52.548Z,97152.69
2018-10-06T03:11:20.043Z,97151.72
2018-10-06T03:13:47.490Z,97155.28
2018-10-06T03:16:14.960Z,97149.52
2018-10-06T03:18:42.451Z,97149.73
2018-10-06T03:21:09.938Z,97152.03
2018-10-06T03:23:37.390Z,97150.22
2018-10-06T03:26:04.790Z,97142.38
2018-10-06T03:28:32.256Z,97143.11
2018-10-06T03:30:59.700Z,97139.20
2018-10-06T03:33:27.104Z,97138.50
2018-10-06T03:35:54.589Z,97141.30
2018-10-06T03:38:22.111Z,97140.41
2018-10-06T03:40:49.681Z,97137.24
2018-10-06T03:43:17.090Z,97136.27
2018-10-06T03:45:44.580Z,97130.76
2018-10-06T03:48:12.217Z,97125.48
2018-10-06T03:50:39.618Z,97121.83
2018-10-06T03:53:07.053Z,97130.20
2018-10-06T03:55:34.518Z,97126.05
2018-10-06T03:58:01.914Z,97121.47
2018-10-06T04:00:29.389Z,97126.38
2018-10-06T04:02:56.785Z,97116.48
2018-10-06T04:05:24.207Z,97120.54
2018-10-06T04:07:51.691Z,97122.52
2018-10-06T04:10:19.253Z,97118.88
2018-10-06T04:12:46.846Z,97117.69
2018-10-06T04:15:14.269Z,97112.49
2018-10-06T04:17:41.675Z,97104.56
2018-10-06T04:20:09.090Z,97109.27
2018-10-06T04:22:37.265Z,97110.84
2018-10-06T04:25:04.755Z,97101.48
2018-10-06T04:27:32.182Z,97108.16
2018-10-06T04:29:59.586Z,97109.89
2018-10-06T04:32:27.424Z,97111.52
2018-10-06T04:34:55.046Z,97103.55
2018-10-06T04:37:22.506Z,97111.17
2018-10-06T04:39:49.958Z,97109.61
2018-10-06T04:42:17.546Z,97110.84
2018-10-06T04:44:44.960Z,97110.80
2018-10-06T04:47:13.247Z,97107.81
2018-10-06T04:49:40.700Z,97108.34
2018-10-06T04:52:08.168Z,97102.13
2018-10-06T04:54:35.614Z,97100.14
2018-10-06T04:57:03.077Z,97098.16
2018-10-06T04:59:30.643Z,97097.41
2018-10-06T05:01:58.050Z,97097.75
2018-10-06T05:04:25.492Z,97093.20
2018-10-06T05:06:52.883Z,97087.44
2018-10-06T05:09:20.526Z,97094.86
2018-10-06T05:11:47.944Z,97092.41
2018-10-06T05:14:15.414Z,97092.24
2018-10-06T05:16:43.228Z,97087.09
2018-10-06T05:19:10.692Z,97083.25
2018-10-06T05:21:38.190Z,97087.98
2018-10-06T05:24:05.651Z,97088.89
2018-10-06T05:26:33.128Z,97096.31
2018-10-06T05:29:01.528Z,97093.25
2018-10-06T05:31:28.927Z,97101.30
2018-10-06T05:33:56.357Z,97097.75
2018-10-06T05:36:23.807Z,97105.12
2018-10-06T05:38:51.362Z,97106.91
2018-10-06T05:41:18.754Z,97103.31
2018-10-06T05:43:46.242Z,97103.31
2018-10-06T05:46:13.695Z,97099.06
2018-10-06T05:48:41.176Z,97106.97
2018-10-06T05:51:08.650Z,97107.81
2018-10-06T05:53:36.112Z,97110.86
2018-10-06T05:56:03.590Z,97107.95
2018-10-06T05:58:30.987Z,97108.38
2018-10-06T06:00:58.385Z,97107.09
2018-10-06T06:03:25.827Z,97108.62
2018-10-06T06:05:53.251Z,97108.09
2018-10-06T06:08:20.708Z,97110.09
2018-10-06T06:10:48.143Z,97110.02
2018-10-06T06:13:16.604Z,97119.27
2018-10-06T06:15:44.104Z,97117.23
2018-10-06T06:18:11.518Z,97116.06
2018-10-06T06:20:38.978Z,97114.38
2018-10-06T06:23:06.447Z,97112.34
2018-10-06T06:25:34.642Z,97109.20
2018-10-06T06:28:02.092Z,97113.48
2018-10-06T06:30:29.636Z,97116.81
2018-10-06T06:32:57.044Z,97116.22
2018-10-06T06:35:24.579Z,97120.91
2018-10-06T06:37:52.091Z,97122.69
2018-10-06T06:40:19.520Z,97124.59
2018-10-06T06:42:46.949Z,97120.44
2018-10-06T06:45:14.400Z,97118.25
2018-10-06T06:47:41.810Z,97123.39
2018-10-06T06:50:09.243Z,97116.44
2018-10-06T06:52:36.642Z,97114.60
2018-10-06T06:55:04.107Z,97107.15
2018-10-06T06:57:31.483Z,97104.34
2018-10-06T06:59:58.906Z,97110.67
2018-10-06T07:02:26.347Z,97109.09
2018-10-06T07:04:53.820Z,97109.81
2018-10-06T07:07:21.276Z,97110.28
2018-10-06T07:09:48.716Z,97107.13
2018-10-06T07:12:16.193Z,97109.85
2018-10-06T07:14:43.793Z,97116.56
2018-10-06T07:17:11.405Z,97112.13
2018-10-06T07:19:38.816Z,97117.95
2018-10-06T07:22:06.372Z,97118.14
2018-10-06T07:24:33.877Z,97124.05
2018-10-06T07:27:01.407Z,97129.89
2018-10-06T07:29:28.866Z,97125.36
2018-10-06T07:31:56.413Z,97134.11
2018-10-06T07:34:23.896Z,97134.58
2018-10-06T07:36:51.331Z,97131.77
2018-10-06T07:39:18.792Z,97136.15
2018-10-06T07:41:46.307Z,97135.41
2018-10-06T07:44:13.792Z,97135.77
2018-10-06T07:46:41.192Z,97129.03
2018-10-06T07:49:08.676Z,97127.79
2018-10-06T07:51:36.190Z,97123.95
2018-10-06T07:54:03.668Z,97127.72
2018-10-06T07:56:31.950Z,97120.19
2018-10-06T07:58:59.355Z,97121.80
2018-10-06T08:01:26.772Z,97127.59
2018-10-06T08:03:54.185Z,97125.20
2018-10-06T08:06:21.737Z,97117.68
2018-10-06T08:08:49.106Z,97119.63
2018-10-06T08:11:17.610Z,97116.77
2018-10-06T08:13:45.085Z,97117.34
2018-10-06T08:16:12.540Z,97115.12
2018-10-06T08:18:40.779Z,97111.77
2018-10-06T08:21:08.292Z,97110.98
2018-10-06T08:23:35.941Z,97114.11
2018-10-06T08:26:03.424Z,97109.84
2018-10-06T08:28:32.099Z,97099.73
2018-10-06T08:30:59.612Z,97109.40
2018-10-06T08:33:31.014Z,97099.83
2018-10-06T08:35:58.153Z,97112.52
2018-10-06T08:38:25.160Z,97100.62
2018-10-06T08:40:52.946Z,97097.35
2018-10-06T08:43:20.395Z,97096.05
2018-10-06T08:45:47.400Z,97096.77
2018-10-06T08:48:14.441Z,97092.67
2018-10-06T08:50:41.431Z,97088.16
2018-10-06T08:53:08.873Z,97086.33
2018-10-06T08:55:35.909Z,97090.61
2018-10-06T08:58:02.939Z,97092.52
2018-10-06T09:00:30.013Z,97088.94
2018-10-06T09:02:57.005Z,97091.14
2018-10-06T09:05:24.145Z,97093.99
2018-10-06T09:07:51.154Z,97091.44
2018-10-06T09:10:18.134Z,97089.46
2018-10-06T09:12:45.135Z,97083.98
2018-10-06T09:15:12.124Z,97088.77
2018-10-06T09:17:39.179Z,97078.38
2018-10-06T09:20:06.173Z,97078.75
2018-10-06T09:22:33.136Z,97078.59
2018-10-06T09:25:00.105Z,97075.59
2018-10-06T09:27:27.927Z,97078.66
2018-10-06T09:29:54.933Z,97074.67
2018-10-06T09:32:21.904Z,97064.70
2018-10-06T09:34:49.788Z,97067.09
2018-10-06T09:37:16.794Z,97063.91
2018-10-06T09:39:43.801Z,97063.14
2018-10-06T09:42:10.995Z,97055.94
2018-10-06T09:44:38.262Z,97059.52
2018-10-06T09:47:05.599Z,97047.62
2018-10-06T09:49:32.554Z,97047.47
2018-10-06T09:51:59.517Z,97050.39
2018-10-06T09:54:26.609Z,97045.73
2018-10-06T09:56:54.358Z,97045.81
2018-10-06T09:59:22.611Z,97036.63
2018-10-06T10:01:56.617Z,97027.25
2018-10-06T10:04:24.075Z,97031.06
2018-10-06T10:06:51.560Z,97023.66
2018-10-06T10:09:19.100Z,97028.59
2018-10-06T10:11:46.326Z,97014.05
2018-10-06T10:14:13.558Z,97013.39
2018-10-06T10:16:40.615Z,97010.11
2018-10-06T10:19:08.174Z,97008.98
2018-10-06T10:21:35.171Z,97004.18
2018-10-06T10:24:02.666Z,97006.10
2018-10-06T10:26:29.669Z,97004.92
2018-10-06T10:28:56.667Z,97002.51
2018-10-06T10:31:23.966Z,97003.65
2018-10-06T10:33:50.964Z,96994.75
2018-10-06T10:36:18.476Z,96998.59
2018-10-06T10:38:45.477Z,96997.56
2018-10-06T10:41:12.489Z,96989.77
2018-10-06T10:43:39.584Z,96987.59
2018-10-06T10:46:06.588Z,96980.92
2018-10-06T10:48:33.713Z,96983.11
2018-10-06T10:51:00.772Z,96980.14
2018-10-06T10:53:27.872Z,96974.17
2018-10-06T10:55:54.848Z,96960.85
2018-10-06T10:58:21.826Z,96963.50
2018-10-06T11:00:48.771Z,96963.41
2018-10-06T11:03:15.809Z,96955.28
2018-10-06T11:05:42.812Z,96954.44
2018-10-06T11:08:09.856Z,96950.53
2018-10-06T11:10:36.885Z,96940.84
2018-10-06T11:13:03.898Z,96928.97
2018-10-06T11:15:31.045Z,96926.34
2018-10-06T11:17:58.067Z,96925.34
2018-10-06T11:20:25.175Z,96911.53
2018-10-06T11:22:52.289Z,96913.31
2018-10-06T11:25:19.403Z,96904.47
2018-10-06T11:27:46.642Z,96906.36
2018-10-06T11:30:13.617Z,96895.62
2018-10-06T11:32:40.592Z,96890.11
2018-10-06T11:35:07.558Z,96888.31
2018-10-06T11:37:34.657Z,96876.45
2018-10-06T11:40:01.569Z,96872.27
2018-10-06T11:42:28.650Z,96872.48
2018-10-06T11:44:55.861Z,96866.20
2018-10-06T11:47:22.869Z,96857.34
2018-10-06T11:49:49.879Z,96850.76
2018-10-06T11:52:16.932Z,96854.55
2018-10-06T11:54:43.952Z,96848.94
2018-10-06T11:57:10.925Z,96843.23
2018-10-06T11:59:38.041Z,96834.02
2018-10-06T12:02:04.955Z,96837.89
2018-10-06T12:04:32.145Z,96831.69
2018-10-06T12:06:59.241Z,96826.45
2018-10-06T12:09:26.269Z,96815.98
2018-10-06T12:11:53.355Z,96812.27
2018-10-06T12:14:20.396Z,96802.68
2018-10-06T12:16:47.683Z,96802.77
2018-10-06T12:19:14.719Z,96804.67
2018-10-06T12:21:41.956Z,96788.39
2018-10-06T12:24:09.307Z,96789.14
2018-10-06T12:26:36.339Z,96785.25
2018-10-06T12:29:03.401Z,96783.45
2018-10-06T12:31:30.692Z,96764.36
2018-10-06T12:33:57.666Z,96768.98
2018-10-06T12:36:27.171Z,96759.50
2018-10-06T12:38:54.188Z,96761.10
2018-10-06T12:41:21.877Z,96755.53
2018-10-06T12:43:48.940Z,96752.73
2018-10-06T12:46:16.028Z,96751.96
2018-10-06T12:48:43.076Z,96755.33
2018-10-06T12:51:10.335Z,96751.70
2018-10-06T12:53:37.406Z,96745.19
2018-10-06T12:56:04.499Z,96740.53
2018-10-06T12:58:31.634Z,96740.69
2018-10-06T13:00:58.657Z,96738.52
2018-10-06T13:03:25.850Z,96735.42
2018-10-06T13:05:52.956Z,96729.41
2018-10-06T13:08:19.901Z,96725.78
2018-10-06T13:10:47.640Z,96727.50
2018-10-06T13:13:14.629Z,96722.73
2018-10-06T13:15:41.787Z,96715.25
2018-10-06T13:18:08.799Z,96717.27
2018-10-06T13:20:35.860Z,96716.92
2018-10-06T13:23:02.829Z,96721.20
2018-10-06T13:25:29.896Z,96719.27
2018-10-06T13:27:56.838Z,96711.62
2018-10-06T13:30:23.824Z,96712.17
2018-10-06T13:32:50.861Z,96710.34
2018-10-06T13:35:17.897Z,96703.13
2018-10-06T13:37:45.002Z,96704.73
2018-10-06T13:40:12.007Z,96703.78
2018-10-06T13:42:39.042Z,96698.95
2018-10-06T13:45:06.106Z,96692.52
2018-10-06T13:47:33.130Z,96692.06
2018-10-06T13:50:00.144Z,96699.67
2018-10-06T13:52:27.226Z,96686.34
2018-10-06T13:54:54.245Z,96684.47
2018-10-06T13:57:21.376Z,96683.67
2018-10-06T13:59:48.410Z,96681.44
2018-10-06T14:02:15.375Z,96674.64
2018-10-06T14:04:42.548Z,96673.62
2018-10-06T14:07:09.488Z,96670.56
2018-10-06T14:09:36.597Z,96667.58
2018-10-06T14:12:03.690Z,96664.93
2018-10-06T14:14:30.710Z,96661.39
2018-10-06T14:16:57.739Z,96661.36
2018-10-06T14:19:24.737Z,96654.34
2018-10-06T14:21:52.287Z,96646.45
2018-10-06T14:24:19.297Z,96650.34
2018-10-06T14:26:46.752Z,96636.38
2018-10-06T14:29:14.351Z,96643.43
2018-10-06T14:31:41.873Z,96630.34
2018-10-06T14:34:09.387Z,96624.52
2018-10-06T14:36:36.835Z,96626.13
2018-10-06T14:39:04.968Z,96621.02
2018-10-06T14:41:33.308Z,96617.17
2018-10-06T14:44:00.882Z,96615.97
2018-10-06T14:46:28.285Z,96612.19
2018-10-06T14:48:55.728Z,96616.72
2018-10-06T14:51:23.224Z,96610.92
2018-10-06T14:53:50.628Z,96610.94
2018-10-06T14:56:18.220Z,96605.00
2018-10-06T14:58:46.828Z,96615.36
2018-10-06T15:01:14.258Z,96611.30
2018-10-06T15:03:41.783Z,96611.98
2018-10-06T15:06:09.370Z,96615.46
2018-10-06T15:08:37.829Z,96612.41
2018-10-06T15:11:05.466Z,96606.38
2018-10-06T15:13:33.010Z,96598.59
2018-10-06T15:16:00.529Z,96601.63
2018-10-06T15:18:28.032Z,96594.48
2018-10-06T15:20:55.623Z,96600.08
2018-10-06T15:23:23.062Z,96584.37
2018-10-06T15:25:50.508Z,96588.41
2018-10-06T15:28:17.969Z,96581.28
2018-10-06T15:30:46.029Z,96581.83
2018-10-06T15:33:13.440Z,96580.68
2018-10-06T15:35:40.906Z,96575.16
2018-10-06T15:38:08.325Z,96566.98
2018-10-06T15:40:35.763Z,96569.21
2018-10-06T15:43:03.344Z,96561.61
2018-10-06T15:45:30.687Z,96569.77
2018-10-06T15:47:58.149Z,96567.18
2018-10-06T15:50:26.411Z,96567.34
2018-10-06T15:52:53.982Z,96570.58
2018-10-06T15:55:22.699Z,96562.25
2018-10-06T15:57:50.177Z,96564.78
2018-10-06T16:00:17.758Z,96552.84
2018-10-06T16:02:45.297Z,96562.13
2018-10-06T16:05:12.713Z,96555.02
2018-10-06T16:07:40.189Z,96560.62
2018-10-06T16:10:07.664Z,96561.93
2018-10-06T16:12:34.689Z,96557.66
2018-10-06T16:15:02.229Z,96555.31
2018-10-06T16:17:29.924Z,96555.55
2018-10-06T16:19:57.359Z,96558.64
2018-10-06T16:22:25.210Z,96559.94
2018-10-06T16:24:52.217Z,96554.95
2018-10-06T16:27:19.327Z,96553.12
2018-10-06T16:29:46.275Z,96552.70
2018-10-06T16:32:13.265Z,96560.61
2018-10-06T16:34:40.256Z,96563.05
2018-10-06T16:37:07.690Z,96556.69
2018-10-06T16:39:35.219Z,96558.78
2018-10-06T16:42:02.679Z,96559.88
2018-10-06T16:44:30.101Z,96566.34
2018-10-06T16:46:58.150Z,96569.78
2018-10-06T16:49:25.182Z,96569.35
2018-10-06T16:51:52.660Z,96577.22
2018-10-06T16:54:19.616Z,96576.52
2018-10-06T16:56:47.126Z,96578.05
2018-10-06T16:59:14.244Z,96576.97
2018-10-06T17:01:41.751Z,96581.98
2018-10-06T17:04:09.233Z,96590.02
2018-10-06T17:06:36.647Z,96582.16
2018-10-06T17:09:04.351Z,96585.30
2018-10-06T17:11:31.859Z,96584.53
2018-10-06T17:14:00.193Z,96588.33
2018-10-06T17:16:27.646Z,96596.14
2018-10-06T17:18:55.091Z,96598.16
2018-10-06T17:21:22.531Z,96595.84
2018-10-06T17:23:50.661Z,96602.75
2018-10-06T17:26:18.113Z,96601.75
2018-10-06T17:28:45.816Z,96597.22
2018-10-06T17:31:13.460Z,96606.30
2018-10-06T17:33:41.938Z,96614.73
2018-10-06T17:36:09.383Z,96604.28
2018-10-06T17:38:36.877Z,96606.52
2018-10-06T17:41:04.548Z,96611.96
2018-10-06T17:43:32.248Z,96607.16
2018-10-06T17:45:59.775Z,96612.27
2018-10-06T17:48:27.305Z,96604.31
2018-10-06T17:50:54.974Z,96606.54
2018-10-06T17:53:22.409Z,96605.83
2018-10-06T17:55:50.041Z,96605.22
2018-10-06T17:58:17.035Z,96605.93
2018-10-06T18:00:44.020Z,96608.95
2018-10-06T18:03:11.089Z,96612.65
2018-10-06T18:05:38.417Z,96614.56
2018-10-06T18:08:05.917Z,96618.23
2018-10-06T18:10:34.255Z,96624.81
2018-10-06T18:13:01.845Z,96622.83
2018-10-06T18:15:29.663Z,96623.41
2018-10-06T18:17:57.722Z,96627.19
2018-10-06T18:20:24.926Z,96628.12
2018-10-06T18:22:51.961Z,96632.03
2018-10-06T18:25:19.430Z,96627.81
2018-10-06T18:27:46.477Z,96642.72
2018-10-06T18:30:13.460Z,96643.55
2018-10-06T18:32:40.680Z,96642.47
2018-10-06T18:35:07.679Z,96643.81
2018-10-06T18:37:34.666Z,96634.12
2018-10-06T18:40:01.709Z,96637.77
2018-10-06T18:42:28.668Z,96647.18
2018-10-06T18:44:56.400Z,96649.52
2018-10-06T18:47:23.379Z,96651.02
2018-10-06T18:49:51.230Z,96656.38
2018-10-06T18:52:18.748Z,96650.73
2018-10-06T18:54:46.364Z,96657.97
2018-10-06T18:57:14.800Z,96657.91
2018-10-06T18:59:42.348Z,96659.32
2018-10-06T19:02:09.775Z,96656.89
2018-10-06T19:04:37.276Z,96650.42
2018-10-06T19:07:04.912Z,96655.80
2018-10-06T19:09:32.476Z,96649.50
2018-10-06T19:11:59.947Z,96649.50
2018-10-06T19:14:27.346Z,96647.73
2018-10-06T19:16:55.238Z,96659.78
2018-10-06T19:19:22.720Z,96655.61
2018-10-06T19:21:50.131Z,96649.05
2018-10-06T19:24:17.667Z,96648.79
2018-10-06T19:26:45.140Z,96653.38
2018-10-06T19:29:12.591Z,96651.70
2018-10-06T19:31:40.090Z,96655.69
2018-10-06T19:34:07.567Z,96652.70
2018-10-06T19:36:35.244Z,96655.37
2018-10-06T19:39:02.841Z,96656.86
2018-10-06T19:41:30.364Z,96654.61
2018-10-06T19:43:57.820Z,96662.66
2018-10-06T19:46:25.323Z,96653.36
2018-10-06T19:48:53.184Z,96652.19
2018-10-06T19:51:20.623Z,96658.41
2018-10-06T19:53:48.097Z,96663.91
2018-10-06T19:56:15.600Z,96665.23
2018-10-06T19:58:43.183Z,96668.22
2018-10-06T20:01:10.636Z,96673.53
2018-10-06T20:03:38.114Z,96669.23
2018-10-06T20:06:05.718Z,96669.05
2018-10-06T20:08:33.149Z,96683.75
2018-10-06T20:11:00.580Z,96674.92
2018-10-06T20:13:28.343Z,96681.56
2018-10-06T20:15:55.835Z,96684.47
2018-10-06T20:18:23.453Z,96687.31
2018-10-06T20:20:50.885Z,96686.81
2018-10-06T20:23:18.374Z,96687.81
2018-10-06T20:25:45.807Z,96685.81
2018-10-06T20:28:13.294Z,96689.86
2018-10-06T20:30:40.851Z,96686.88
2018-10-06T20:33:08.291Z,96690.34
2018-10-06T20:35:35.719Z,96688.43
2018-10-06T20:38:03.150Z,96686.11
2018-10-06T20:40:30.611Z,96676.47
2018-10-06T20:42:58.071Z,96676.88
2018-10-06T20:45:25.706Z,96672.50
2018-10-06T20:47:53.137Z,96669.13
2018-10-06T20:50:20.821Z,96670.20
2018-10-06T20:52:48.260Z,96663.93
2018-10-06T20:55:15.707Z,96665.91
2018-10-06T20:57:43.218Z,96659.27
2018-10-06T21:00:10.786Z,96657.86
2018-10-06T21:02:38.243Z,96655.62
2018-10-06T21:05:05.708Z,96659.12
2018-10-06T21:07:33.359Z,96651.92
2018-10-06T21:10:00.917Z,96657.17
2018-10-06T21:12:28.344Z,96656.84
2018-10-06T21:14:55.780Z,96660.68
2018-10-06T21:17:23.179Z,96662.42
2018-10-06T21:19:50.708Z,96666.29
2018-10-06T21:22:18.163Z,96662.39
2018-10-06T21:24:45.660Z,96658.33
2018-10-06T21:27:13.102Z,96659.89
2018-10-06T21:29:40.740Z,96657.17
2018-10-06T21:32:08.194Z,96651.52
2018-10-06T21:34:35.677Z,96647.91
2018-10-06T21:37:03.141Z,96655.11
2018-10-06T21:39:30.582Z,96647.89
2018-10-06T21:41:58.022Z,96652.34
2018-10-06T21:44:25.467Z,96652.81
2018-10-06T21:46:52.961Z,96648.89
2018-10-06T21:49:20.441Z,96642.23
2018-10-06T21:51:47.881Z,96650.48
2018-10-06T21:54:15.356Z,96648.28
2018-10-06T21:56:43.312Z,96649.75
2018-10-06T21:59:10.923Z,96648.11
2018-10-06T22:01:38.341Z,96655.53
2018-10-06T22:04:05.792Z,96660.19
2018-10-06T22:06:33.218Z,96659.62
2018-10-06T22:09:00.700Z,96656.24
2018-10-06T22:11:28.167Z,96650.17
2018-10-06T22:13:55.639Z,96654.98
2018-10-06T22:16:23.088Z,96653.92
2018-10-06T22:18:50.594Z,96647.06
2018-10-06T22:21:18.140Z,96656.34
2018-10-06T22:23:45.598Z,96654.56
2018-10-06T22:26:13.035Z,96651.92
2018-10-06T22:28:40.574Z,96648.46
2018-10-06T22:31:08.819Z,96640.33
2018-10-06T22:33:36.532Z,96641.02
2018-10-06T22:36:03.996Z,96636.44
2018-10-06T22:38:31.399Z,96640.96
2018-10-06T22:40:58.866Z,96641.88
2018-10-06T22:43:26.331Z,96651.84
2018-10-06T22:45:53.860Z,96650.20
2018-10-06T22:48:21.332Z,96652.89
2018-10-06T22:50:48.778Z,96658.19
2018-10-06T22:53:16.220Z,96654.22
2018-10-06T22:55:43.610Z,96657.00
2018-10-06T22:58:11.232Z,96659.61
2018-10-06T23:00:38.647Z,96657.56
2018-10-06T23:03:06.165Z,96656.86
2018-10-06T23:05:33.608Z,96648.23
2018-10-06T23:08:01.128Z,96656.64
2018-10-06T23:10:28.619Z,96647.00
2018-10-06T23:12:56.050Z,96651.02
2018-10-06T23:15:23.520Z,96651.89
2018-10-06T23:17:51.606Z,96655.72
2018-10-06T23:20:19.027Z,96658.52
2018-10-06T23:22:46.487Z,96660.74
2018-10-06T23:25:13.944Z,96659.80
2018-10-06T23:27:41.437Z,96656.51
2018-10-06T23:30:08.911Z,96651.12
2018-10-06T23:32:36.416Z,96651.07
2018-10-06T23:35:03.853Z,96656.83
2018-10-06T23:37:31.362Z,96655.13
2018-10-06T23:39:58.792Z,96661.13
2018-10-06T23:42:26.279Z,96661.98
2018-10-06T23:44:53.685Z,96662.62
2018-10-06T23:47:21.106Z,96668.31
2018-10-06T23:49:48.543Z,96668.99
2018-10-06T23:52:16.489Z,96664.72
2018-10-06T23:54:43.916Z,96672.27
2018-10-06T23:57:11.372Z,96673.37
2018-10-06T23:59:39.153Z,96678.39
